Terminal Aerodrome Forecast
Issued by NWS

Home | Current Version | Previous Version | Text Only | Print | Product List | Glossary On
Versions: 1 2 3 4 5 6 7 8 9 10 11 12 13 14 15 16 17 18 19 20 21 22 23 24 25 26 27 28 29 30 31 32 33 34 35 36 37 38 39 40 41 42 43 44 45 46
000
FTUS46 KPQR 272324
TAFONP
TAF
KONP 272324Z 2800/2824 19011KT 3SM -RA BR SCT008 BKN010 OVC020
     FM280300 19012G20KT 3SM -RA BR BKN006 OVC015
     FM281600 22015G25KT 5SM -SHRA BR SCT008 BKN018 OVC030
     FM282200 22015G25KT 5SM -RA BR SCT008 BKN025 OVC035=

USA.gov is the U.S. government's official web portal to all federal, state and local government web resources and services.